createdAt,value
2023-04-26T00:00:09.353Z,3.07
2023-04-26T00:02:40.142Z,2.70
2023-04-26T00:05:09.500Z,2.90
2023-04-26T00:07:38.609Z,3.08
2023-04-26T00:10:06.854Z,2.72
2023-04-26T00:15:07.653Z,2.80
2023-04-26T00:17:35.101Z,2.75
2023-04-26T00:20:02.478Z,2.55
2023-04-26T00:22:29.741Z,2.53
2023-04-26T00:24:59.907Z,2.70
2023-04-26T00:27:27.076Z,2.60
2023-04-26T00:29:54.328Z,2.78
2023-04-26T00:32:21.535Z,2.88
2023-04-26T00:34:48.812Z,2.67
2023-04-26T00:37:16.666Z,2.70
2023-04-26T00:39:43.900Z,2.78
2023-04-26T00:42:11.692Z,2.53
2023-04-26T00:44:40.436Z,2.70
2023-04-26T00:47:07.703Z,2.70
2023-04-26T00:49:34.960Z,2.38
2023-04-26T00:52:02.221Z,2.55
2023-04-26T00:54:29.562Z,2.43
2023-04-26T00:56:56.832Z,2.70
2023-04-26T00:59:24.250Z,2.73
2023-04-26T01:01:51.557Z,2.60
2023-04-26T01:04:19.329Z,2.30
2023-04-26T01:06:46.744Z,2.60
2023-04-26T01:09:15.946Z,2.25
2023-04-26T01:11:43.800Z,2.58
2023-04-26T01:14:11.803Z,2.28
2023-04-26T01:16:40.844Z,2.30
2023-04-26T01:19:15.478Z,2.40
2023-04-26T01:21:43.208Z,2.28
2023-04-26T01:24:13.624Z,2.67
2023-04-26T01:26:45.682Z,2.35
2023-04-26T01:29:20.361Z,2.20
2023-04-26T01:31:48.131Z,2.10
2023-04-26T01:34:15.782Z,2.30
2023-04-26T01:36:43.078Z,2.58
2023-04-26T01:39:10.424Z,2.40
2023-04-26T01:41:37.776Z,2.27
2023-04-26T01:44:05.114Z,2.30
2023-04-26T01:46:32.457Z,2.03
2023-04-26T01:48:59.747Z,2.30
2023-04-26T01:51:27.274Z,1.98
2023-04-26T01:53:54.548Z,2.30
2023-04-26T01:56:21.820Z,2.50
2023-04-26T01:58:49.077Z,2.00
2023-04-26T02:01:18.920Z,2.23
2023-04-26T02:03:46.277Z,2.10
2023-04-26T02:06:13.620Z,2.35
2023-04-26T02:08:42.317Z,2.30
2023-04-26T02:11:10.041Z,2.20
2023-04-26T02:13:37.555Z,2.38
2023-04-26T02:16:05.030Z,2.10
2023-04-26T02:18:32.349Z,2.20
2023-04-26T02:20:59.632Z,2.10
2023-04-26T02:23:26.882Z,1.93
2023-04-26T02:25:54.185Z,2.20
2023-04-26T02:28:21.483Z,2.00
2023-04-26T02:30:48.732Z,2.07
2023-04-26T02:33:15.956Z,1.95
2023-04-26T02:35:43.144Z,2.17
2023-04-26T02:38:10.405Z,2.10
2023-04-26T02:40:37.615Z,2.15
2023-04-26T02:43:04.853Z,1.95
2023-04-26T02:45:32.194Z,1.90
2023-04-26T02:47:59.464Z,1.90
2023-04-26T02:50:26.792Z,2.00
2023-04-26T02:52:54.166Z,1.90
2023-04-26T02:55:21.377Z,2.00
2023-04-26T02:57:48.597Z,2.15
2023-04-26T03:00:15.910Z,1.85
2023-04-26T03:02:43.296Z,1.80
2023-04-26T03:05:10.739Z,2.00
2023-04-26T03:07:38.223Z,2.17
2023-04-26T03:10:05.800Z,1.90
2023-04-26T03:12:33.121Z,2.10
2023-04-26T03:15:00.354Z,1.90
2023-04-26T03:17:27.666Z,1.90
2023-04-26T03:19:54.960Z,1.83
2023-04-26T03:22:22.733Z,1.88
2023-04-26T03:24:50.020Z,1.80
2023-04-26T03:27:17.303Z,1.93
2023-04-26T03:29:44.513Z,1.90
2023-04-26T03:32:14.107Z,2.00
2023-04-26T03:34:41.572Z,1.85
2023-04-26T03:37:08.885Z,1.73
2023-04-26T03:39:36.221Z,1.90
2023-04-26T03:42:04.059Z,1.90
2023-04-26T03:44:31.349Z,1.80
2023-04-26T03:46:58.718Z,1.90
2023-04-26T03:49:26.193Z,2.00
2023-04-26T03:51:53.452Z,1.80
2023-04-26T03:54:20.719Z,1.70
2023-04-26T03:56:47.967Z,1.83
2023-04-26T03:59:15.294Z,1.80
2023-04-26T04:01:42.507Z,1.77
2023-04-26T04:04:10.183Z,1.85
2023-04-26T04:06:38.429Z,1.77
2023-04-26T04:09:05.987Z,1.80
2023-04-26T04:11:33.319Z,1.60
2023-04-26T04:14:00.995Z,1.80
2023-04-26T04:16:28.235Z,1.80
2023-04-26T04:18:55.504Z,1.57
2023-04-26T04:21:22.716Z,1.80
2023-04-26T04:23:50.307Z,1.55
2023-04-26T04:26:19.164Z,1.63
2023-04-26T04:28:47.332Z,1.50
2023-04-26T04:31:15.204Z,1.67
2023-04-26T04:33:42.487Z,1.80
2023-04-26T04:36:09.695Z,1.65
2023-04-26T04:38:37.369Z,1.60
2023-04-26T04:41:04.626Z,1.70
2023-04-26T04:43:31.912Z,1.50
2023-04-26T04:45:59.164Z,1.63
2023-04-26T04:48:26.473Z,1.60
2023-04-26T04:50:53.747Z,1.60
2023-04-26T04:53:21.110Z,1.40
2023-04-26T04:55:49.301Z,1.50
2023-04-26T05:00:43.742Z,1.55
2023-04-26T05:03:11.183Z,1.50
2023-04-26T05:05:38.578Z,1.38
2023-04-26T05:08:07.878Z,1.60
2023-04-26T05:10:36.021Z,1.90
2023-04-26T05:13:03.273Z,2.10
2023-04-26T05:15:30.708Z,1.90
2023-04-26T05:17:59.589Z,2.05
2023-04-26T05:20:27.070Z,2.05
2023-04-26T05:22:56.768Z,2.00
2023-04-26T05:25:24.038Z,2.17
2023-04-26T05:27:51.493Z,2.50
2023-04-26T05:30:18.725Z,2.13
2023-04-26T05:32:46.155Z,2.60
2023-04-26T05:35:13.382Z,2.80
2023-04-26T05:37:40.674Z,2.47
2023-04-26T05:40:08.841Z,2.33
2023-04-26T05:45:03.454Z,2.28
2023-04-26T05:47:30.915Z,2.10
2023-04-26T05:49:58.119Z,1.90
2023-04-26T05:52:25.330Z,2.00
2023-04-26T05:54:52.561Z,2.30
2023-04-26T05:57:19.844Z,2.10
2023-04-26T05:59:47.825Z,1.90
2023-04-26T06:02:15.138Z,2.20
2023-04-26T06:04:42.659Z,2.00
2023-04-26T06:07:09.976Z,2.10
2023-04-26T06:09:37.241Z,2.00
2023-04-26T06:12:04.776Z,1.63
2023-04-26T06:14:32.029Z,2.00
2023-04-26T06:16:59.351Z,1.70
2023-04-26T06:19:26.665Z,1.60
2023-04-26T06:21:55.461Z,1.90
2023-04-26T06:24:23.781Z,1.85
2023-04-26T06:26:51.423Z,1.95
2023-04-26T06:29:18.908Z,1.63
2023-04-26T06:31:46.323Z,2.22
2023-04-26T06:36:41.190Z,1.77
2023-04-26T06:39:08.395Z,1.50
2023-04-26T06:41:35.635Z,1.80
2023-04-26T06:44:02.876Z,1.83
2023-04-26T06:46:30.139Z,1.73
2023-04-26T06:48:57.492Z,1.60
2023-04-26T06:51:24.729Z,1.63
2023-04-26T06:53:53.081Z,1.50
2023-04-26T06:56:20.509Z,1.83
2023-04-26T06:59:03.793Z,1.70
2023-04-26T07:01:33.824Z,1.73
2023-04-26T07:04:04.835Z,2.00
2023-04-26T07:06:32.570Z,1.80
2023-04-26T07:09:01.452Z,1.55
2023-04-26T07:11:29.176Z,1.60
2023-04-26T07:13:57.175Z,1.70
2023-04-26T07:18:52.956Z,1.70
2023-04-26T07:21:20.515Z,1.70
2023-04-26T07:23:47.892Z,1.90
2023-04-26T07:26:15.277Z,1.70
2023-04-26T07:28:42.495Z,1.70
2023-04-26T07:31:10.995Z,1.57
2023-04-26T07:33:38.881Z,1.88
2023-04-26T07:36:06.264Z,1.70
2023-04-26T07:38:33.571Z,1.48
2023-04-26T07:41:04.630Z,1.45
2023-04-26T07:43:32.662Z,1.60
2023-04-26T07:46:01.113Z,1.77
2023-04-26T07:48:28.847Z,1.60
2023-04-26T07:50:56.304Z,1.90
2023-04-26T07:53:23.826Z,1.80
2023-04-26T07:55:51.693Z,1.40
2023-04-26T07:58:19.479Z,1.45
2023-04-26T08:00:46.805Z,1.55
2023-04-26T08:03:19.032Z,1.42
2023-04-26T08:05:46.850Z,1.63
2023-04-26T08:08:14.242Z,1.40
2023-04-26T08:10:42.746Z,1.60
2023-04-26T08:13:10.055Z,1.60
2023-04-26T08:15:37.339Z,1.40
2023-04-26T08:18:04.768Z,1.52
2023-04-26T08:20:32.814Z,1.40
2023-04-26T08:25:27.709Z,1.35
2023-04-26T08:27:55.275Z,1.52
2023-04-26T08:30:23.236Z,1.50
2023-04-26T08:35:17.690Z,1.48
2023-04-26T08:37:45.047Z,1.50
2023-04-26T08:40:12.433Z,2.55
2023-04-26T08:42:41.261Z,2.10
2023-04-26T08:45:11.579Z,2.08
2023-04-26T08:47:45.951Z,1.95
2023-04-26T08:50:14.952Z,1.80
2023-04-26T08:52:42.836Z,1.73
2023-04-26T08:55:10.799Z,1.92
2023-04-26T09:00:06.787Z,2.00
2023-04-26T09:02:34.638Z,1.60
2023-04-26T09:07:33.982Z,1.60
2023-04-26T09:10:01.499Z,1.50
2023-04-26T09:12:28.745Z,1.63
2023-04-26T09:14:56.593Z,1.50
2023-04-26T09:17:27.094Z,1.55
2023-04-26T09:19:54.775Z,1.70
2023-04-26T09:22:38.928Z,1.88
2023-04-26T09:25:07.262Z,1.70
2023-04-26T09:27:39.100Z,1.70
2023-04-26T09:30:06.667Z,1.60
2023-04-26T09:32:49.053Z,1.63
2023-04-26T09:35:36.349Z,1.60
2023-04-26T09:38:11.079Z,1.65
2023-04-26T09:40:44.207Z,1.58
2023-04-26T09:43:14.335Z,1.30
2023-04-26T09:45:46.226Z,1.60
2023-04-26T09:48:14.611Z,1.50
2023-04-26T09:50:41.918Z,1.45
2023-04-26T09:53:09.280Z,1.77
2023-04-26T09:55:36.520Z,1.60
2023-04-26T09:58:10.631Z,1.23
2023-04-26T10:00:39.475Z,1.60
2023-04-26T10:03:08.831Z,1.35
2023-04-26T10:05:37.453Z,1.25
2023-04-26T10:08:04.802Z,1.63
2023-04-26T10:10:32.205Z,1.48
2023-04-26T10:12:59.595Z,1.58
2023-04-26T10:15:27.166Z,1.40
2023-04-26T10:17:54.489Z,1.40
2023-04-26T10:20:22.989Z,1.40
2023-04-26T10:23:02.873Z,1.60
2023-04-26T10:25:40.302Z,1.50
2023-04-26T10:28:07.804Z,1.27
2023-04-26T10:30:54.754Z,1.50
2023-04-26T10:33:23.758Z,1.47
2023-04-26T10:36:05.293Z,1.80
2023-04-26T10:38:33.288Z,1.60
2023-04-26T10:43:30.962Z,1.30
2023-04-26T10:45:58.476Z,1.52
2023-04-26T10:48:31.024Z,1.52
2023-04-26T10:51:01.549Z,1.77
2023-04-26T10:53:28.882Z,1.85
2023-04-26T10:55:56.140Z,1.47
2023-04-26T10:58:27.398Z,1.50
2023-04-26T11:01:07.161Z,1.65
2023-04-26T11:03:34.963Z,1.98
2023-04-26T11:06:07.139Z,1.90
2023-04-26T11:08:36.546Z,2.03
2023-04-26T11:11:03.784Z,1.73
2023-04-26T11:13:34.694Z,1.80
2023-04-26T11:16:11.802Z,1.92
2023-04-26T11:18:40.078Z,1.73
2023-04-26T11:21:07.818Z,1.80
2023-04-26T11:23:35.856Z,2.15
2023-04-26T11:28:34.428Z,1.90
2023-04-26T11:31:02.065Z,1.90
2023-04-26T11:33:29.421Z,1.63
2023-04-26T11:35:57.031Z,1.70
2023-04-26T11:38:25.018Z,1.77
2023-04-26T11:40:59.687Z,1.88
2023-04-26T11:43:32.984Z,1.90
2023-04-26T11:46:03.936Z,1.80
2023-04-26T11:48:31.826Z,1.90
2023-04-26T11:50:59.742Z,1.48
2023-04-26T11:53:36.114Z,1.58
2023-04-26T11:56:03.506Z,1.55
2023-04-26T11:58:30.800Z,1.77
2023-04-26T12:01:00.913Z,1.80
2023-04-26T12:03:37.922Z,1.50
2023-04-26T12:06:06.275Z,1.70
2023-04-26T12:11:03.509Z,1.77
2023-04-26T12:13:31.042Z,1.80
2023-04-26T12:15:58.329Z,1.52
2023-04-26T12:18:32.959Z,1.47
2023-04-26T12:21:00.671Z,1.60
2023-04-26T12:23:28.015Z,1.50
2023-04-26T12:25:56.021Z,1.33
2023-04-26T12:28:26.029Z,1.75
2023-04-26T12:30:53.269Z,1.50
2023-04-26T12:33:23.008Z,1.50
2023-04-26T12:35:50.986Z,1.25
2023-04-26T12:38:19.033Z,1.50
2023-04-26T12:43:14.095Z,1.80
2023-04-26T12:45:41.407Z,1.67
2023-04-26T12:48:08.692Z,1.42
2023-04-26T12:50:35.988Z,1.50
2023-04-26T12:53:03.259Z,1.50
2023-04-26T12:55:32.572Z,1.53
2023-04-26T12:58:00.618Z,1.48
2023-04-26T13:00:27.917Z,1.70
2023-04-26T13:02:55.920Z,1.70
2023-04-26T13:07:52.097Z,1.58
2023-04-26T13:10:19.654Z,1.33
2023-04-26T13:12:47.003Z,1.63
2023-04-26T13:15:16.206Z,1.40
2023-04-26T13:17:45.593Z,1.60
2023-04-26T13:20:13.140Z,1.65
2023-04-26T13:22:42.477Z,1.60
2023-04-26T13:25:10.735Z,1.48
2023-04-26T13:27:40.322Z,1.45
2023-04-26T13:30:08.541Z,1.80
2023-04-26T13:32:36.267Z,1.52
2023-04-26T13:35:04.258Z,1.60
2023-04-26T13:37:31.767Z,1.42
2023-04-26T13:39:59.080Z,1.50
2023-04-26T13:42:27.152Z,1.50
2023-04-26T13:44:54.696Z,1.52
2023-04-26T13:47:21.992Z,1.60
2023-04-26T13:49:49.306Z,1.67
2023-04-26T13:52:16.556Z,1.50
2023-04-26T13:54:43.779Z,1.50
2023-04-26T13:57:11.797Z,1.23
2023-04-26T13:59:40.368Z,1.52
2023-04-26T14:02:07.882Z,1.55
2023-04-26T14:04:35.270Z,1.60
2023-04-26T14:07:05.563Z,1.50
2023-04-26T14:09:33.215Z,1.27
2023-04-26T14:12:08.062Z,1.30
2023-04-26T14:14:36.066Z,1.58
2023-04-26T14:17:03.591Z,1.70
2023-04-26T14:19:31.368Z,1.50
2023-04-26T14:21:58.627Z,1.40
2023-04-26T14:24:25.915Z,1.40
2023-04-26T14:26:53.125Z,1.63
2023-04-26T14:29:20.372Z,1.40
2023-04-26T14:31:47.699Z,1.57
2023-04-26T14:34:14.967Z,1.48
2023-04-26T14:36:42.217Z,1.43
2023-04-26T14:39:09.803Z,1.40
2023-04-26T14:41:37.406Z,1.58
2023-04-26T14:44:04.693Z,1.50
2023-04-26T14:46:31.976Z,1.40
2023-04-26T14:48:59.289Z,1.42
2023-04-26T14:51:27.407Z,1.77
2023-04-26T14:53:54.760Z,1.58
2023-04-26T14:56:22.018Z,1.40
2023-04-26T14:58:49.250Z,1.40
2023-04-26T15:01:16.554Z,1.47
2023-04-26T15:03:43.943Z,1.40
2023-04-26T15:06:11.261Z,1.80
2023-04-26T15:08:38.531Z,1.67
2023-04-26T15:11:05.770Z,1.30
2023-04-26T15:13:33.008Z,1.50
2023-04-26T15:16:05.994Z,1.23
2023-04-26T15:18:34.734Z,1.45
2023-04-26T15:21:01.936Z,1.83
2023-04-26T15:23:29.168Z,1.70
2023-04-26T15:25:56.459Z,1.67
2023-04-26T15:28:23.735Z,1.70
2023-04-26T15:30:50.938Z,1.90
2023-04-26T15:33:18.481Z,1.90
2023-04-26T15:35:46.130Z,2.03
2023-04-26T15:38:13.399Z,1.83
2023-04-26T15:40:40.683Z,2.00
2023-04-26T15:43:07.953Z,2.30
2023-04-26T15:45:36.304Z,2.20
2023-04-26T15:48:03.621Z,2.20
2023-04-26T15:50:32.176Z,2.10
2023-04-26T15:52:59.369Z,2.57
2023-04-26T15:55:26.614Z,2.20
2023-04-26T15:57:53.820Z,2.00
2023-04-26T16:00:21.481Z,1.90
2023-04-26T16:02:48.926Z,2.60
2023-04-26T16:05:16.568Z,2.40
2023-04-26T16:07:43.975Z,2.10
2023-04-26T16:10:11.694Z,2.25
2023-04-26T16:12:42.859Z,2.20
2023-04-26T16:15:10.501Z,2.40
2023-04-26T16:17:38.744Z,2.20
2023-04-26T16:20:07.154Z,2.47
2023-04-26T16:22:34.800Z,2.55
2023-04-26T16:25:02.786Z,2.28
2023-04-26T16:27:30.046Z,2.90
2023-04-26T16:29:57.638Z,2.33
2023-04-26T16:32:26.324Z,2.28
2023-04-26T16:34:53.849Z,2.17
2023-04-26T16:37:21.145Z,2.47
2023-04-26T16:39:48.499Z,2.33
2023-04-26T16:42:15.739Z,2.20
2023-04-26T16:44:43.012Z,2.50
2023-04-26T16:47:10.262Z,2.40
2023-04-26T16:49:37.526Z,2.70
2023-04-26T16:52:04.835Z,2.50
2023-04-26T16:54:32.130Z,2.40
2023-04-26T16:56:59.390Z,2.37
2023-04-26T16:59:27.538Z,2.50
2023-04-26T17:04:22.025Z,2.37
2023-04-26T17:06:49.397Z,2.10
2023-04-26T17:09:16.687Z,2.00
2023-04-26T17:11:44.849Z,2.77
2023-04-26T17:16:39.331Z,2.25
2023-04-26T17:19:09.111Z,1.90
2023-04-26T17:21:36.449Z,2.40
2023-04-26T17:24:03.715Z,2.20
2023-04-26T17:26:33.332Z,2.10
2023-04-26T17:29:00.635Z,2.10
2023-04-26T17:31:28.353Z,2.40
2023-04-26T17:33:55.678Z,2.42
2023-04-26T17:36:23.345Z,2.13
2023-04-26T17:38:50.539Z,2.10
2023-04-26T17:41:17.891Z,2.17
2023-04-26T17:43:45.686Z,2.20
2023-04-26T17:46:13.045Z,2.20
2023-04-26T17:48:40.330Z,2.03
2023-04-26T17:51:07.651Z,2.40
2023-04-26T17:53:34.975Z,2.00
2023-04-26T17:56:06.584Z,2.40
2023-04-26T17:58:34.276Z,2.22
2023-04-26T18:01:01.671Z,2.55
2023-04-26T18:03:30.222Z,2.53
2023-04-26T18:05:57.854Z,2.50
2023-04-26T18:08:27.399Z,2.35
2023-04-26T18:10:55.753Z,2.50
2023-04-26T18:13:23.565Z,2.20
2023-04-26T18:15:51.444Z,2.50
2023-04-26T18:18:18.797Z,2.53
2023-04-26T18:20:46.131Z,2.72
2023-04-26T18:23:13.473Z,2.83
2023-04-26T18:25:40.786Z,2.90
2023-04-26T18:28:08.752Z,3.90
2023-04-26T18:30:36.112Z,3.92
2023-04-26T18:33:03.772Z,3.27
2023-04-26T18:35:31.147Z,3.50
2023-04-26T18:37:58.387Z,4.30
2023-04-26T18:40:25.625Z,3.63
2023-04-26T18:42:52.968Z,3.27
2023-04-26T18:45:20.173Z,3.03
2023-04-26T18:47:47.633Z,3.35
2023-04-26T18:50:14.876Z,3.38
2023-04-26T18:52:42.116Z,3.22
2023-04-26T18:55:09.585Z,3.73
2023-04-26T18:57:36.852Z,3.22
2023-04-26T19:00:05.304Z,2.93
2023-04-26T19:02:34.228Z,3.03
2023-04-26T19:05:01.858Z,3.38
2023-04-26T19:07:29.196Z,3.40
2023-04-26T19:10:04.048Z,3.07
2023-04-26T19:12:31.593Z,3.33
2023-04-26T19:14:58.876Z,3.42
2023-04-26T19:17:26.415Z,3.43
2023-04-26T19:19:55.097Z,3.15
2023-04-26T19:22:22.346Z,3.70
2023-04-26T19:24:50.154Z,3.47
2023-04-26T19:27:25.359Z,2.83
2023-04-26T19:29:54.872Z,3.28
2023-04-26T19:32:22.989Z,3.20
2023-04-26T19:34:50.535Z,3.30
2023-04-26T19:37:17.761Z,3.07
2023-04-26T19:39:45.305Z,3.63
2023-04-26T19:42:12.630Z,3.42
2023-04-26T19:44:39.975Z,3.10
2023-04-26T19:47:08.618Z,3.53
2023-04-26T19:49:36.689Z,3.55
2023-04-26T19:52:03.942Z,3.25
2023-04-26T19:54:32.253Z,3.08
2023-04-26T19:56:59.514Z,3.53
2023-04-26T19:59:27.162Z,3.33
2023-04-26T20:01:54.478Z,3.20
2023-04-26T20:04:21.982Z,3.28
2023-04-26T20:06:49.345Z,3.28
2023-04-26T20:09:17.095Z,3.50
2023-04-26T20:11:44.402Z,3.10
2023-04-26T20:14:11.670Z,3.03
2023-04-26T20:16:38.974Z,2.90
2023-04-26T20:19:06.582Z,2.80
2023-04-26T20:21:36.562Z,3.20
2023-04-26T20:24:03.833Z,2.83
2023-04-26T20:26:31.187Z,3.10
2023-04-26T20:28:58.499Z,3.25
2023-04-26T20:31:25.780Z,3.00
2023-04-26T20:33:53.688Z,2.93
2023-04-26T20:36:21.017Z,2.70
2023-04-26T20:38:48.264Z,2.90
2023-04-26T20:41:15.587Z,3.38
2023-04-26T20:43:43.016Z,3.00
2023-04-26T20:46:10.373Z,3.10
2023-04-26T20:48:37.775Z,2.95
2023-04-26T20:51:05.052Z,2.85
2023-04-26T20:53:32.309Z,3.00
2023-04-26T20:55:59.638Z,2.67
2023-04-26T20:58:26.998Z,2.80
2023-04-26T21:00:56.755Z,2.90
2023-04-26T21:03:24.133Z,3.20
2023-04-26T21:05:53.973Z,2.70
2023-04-26T21:08:21.360Z,2.67
2023-04-26T21:10:48.705Z,2.70
2023-04-26T21:13:15.990Z,2.77
2023-04-26T21:15:45.791Z,2.57
2023-04-26T21:18:13.102Z,2.78
2023-04-26T21:20:40.395Z,2.50
2023-04-26T21:23:07.664Z,2.63
2023-04-26T21:25:34.916Z,2.47
2023-04-26T21:28:02.162Z,2.70
2023-04-26T21:30:29.424Z,2.60
2023-04-26T21:32:59.150Z,2.60
2023-04-26T21:35:26.446Z,2.30
2023-04-26T21:37:53.779Z,2.60
2023-04-26T21:40:20.989Z,2.70
2023-04-26T21:42:57.984Z,2.60
2023-04-26T21:45:31.474Z,2.50
2023-04-26T21:47:58.785Z,2.40
2023-04-26T21:50:26.030Z,2.50
2023-04-26T21:52:53.644Z,2.72
2023-04-26T21:55:20.844Z,2.78
2023-04-26T21:57:48.104Z,2.53
2023-04-26T22:00:16.727Z,2.50
2023-04-26T22:02:44.143Z,2.50
2023-04-26T22:05:11.530Z,2.83
2023-04-26T22:07:38.859Z,2.53
2023-04-26T22:10:06.742Z,2.80
2023-04-26T22:12:34.039Z,2.45
2023-04-26T22:15:01.785Z,2.73
2023-04-26T22:17:29.079Z,2.45
2023-04-26T22:19:56.506Z,2.70
2023-04-26T22:22:26.225Z,2.70
2023-04-26T22:24:53.454Z,2.40
2023-04-26T22:27:21.864Z,2.58
2023-04-26T22:29:49.090Z,2.80
2023-04-26T22:32:16.382Z,2.55
2023-04-26T22:34:46.205Z,2.67
2023-04-26T22:37:20.210Z,2.50
2023-04-26T22:39:48.370Z,2.40
2023-04-26T22:42:15.708Z,2.27
2023-04-26T22:44:43.004Z,2.60
2023-04-26T22:47:10.210Z,2.45
2023-04-26T22:49:37.453Z,2.70
2023-04-26T22:52:11.576Z,2.67
2023-04-26T22:54:41.652Z,2.63
2023-04-26T22:57:08.893Z,2.13
2023-04-26T22:59:36.265Z,2.60
2023-04-26T23:02:03.486Z,2.40
2023-04-26T23:04:30.767Z,2.25
2023-04-26T23:06:57.997Z,2.60
2023-04-26T23:09:25.287Z,2.13
2023-04-26T23:11:52.529Z,2.30
2023-04-26T23:14:22.990Z,2.42
2023-04-26T23:16:50.751Z,2.50
2023-04-26T23:19:18.300Z,2.50
2023-04-26T23:21:45.536Z,2.42
2023-04-26T23:24:12.760Z,2.20
2023-04-26T23:26:39.987Z,2.10
2023-04-26T23:29:07.184Z,2.22
2023-04-26T23:31:36.791Z,2.38
2023-04-26T23:34:04.070Z,2.45
2023-04-26T23:36:33.390Z,2.50
2023-04-26T23:39:00.662Z,2.65
2023-04-26T23:41:27.865Z,2.38
2023-04-26T23:43:55.116Z,2.20
2023-04-26T23:46:22.372Z,2.20
2023-04-26T23:48:49.645Z,2.20
2023-04-26T23:51:16.912Z,2.40
2023-04-26T23:53:44.916Z,2.47
2023-04-26T23:56:12.309Z,2.33
2023-04-26T23:58:39.572Z,2.10
